Relevés horaires Jungfraujoch (Suisse)


Relevés horaires à Jungfraujoch - Lundi 27 Juin 2011
Heure UTC1 Température [°C] Vent [km/h] Hum. [%] Pres.4 [hPa] Visi. [Km] Nébu. [octa] Préc.5 [mm] Cond.
2m. Res. Ros. Dir.2 Vit. Moy. Raf.3
23:00 3.5 -0.4 3.5 NO 16.7 20.4 33.3 100 700(-0.5/3h) -- -- -- --
22:00 3.2 -1.9 3.2 NO 25.9 25.9 42.6 100 700(-0.4/3h) -- -- -- --
21:00 4.0 0.5 4.0 NNO 14.8 27.8 44.4 100 700(-0.4/3h) -- -- -- --
20:00 3.5 -0.4 3.4 NO 16.7 20.4 38.9 99 700(-0.1/3h) -- -- -- --
19:00 4.1 0.4 4.1 NO 16.7 16.7 33.3 100 700(-0.4/3h) -- -- -- --
18:00 4.6 1 4.6 NNO 16.7 16.7 27.8 100 700(-0.6/3h) 0 -- -- Brouillard de plus en plus épais, ciel pas visible
17:00 5.0 2.1 5.0 NO 13.0 13.0 27.8 100 700(-0.6/3h) -- -- -- --
16:00 5.6 3.5 2.4 ONO 9.3 11.1 25.9 80 700(-0.3/3h) -- -- -- --
15:00 6.4 4.5 2.0 ONO 9.3 9.3 27.8 73 700(0.1/3h) >70 0/8 -- --
14:00 7.2 7.2 1.4 NNO 3.7 7.4 13.0 67 700(-0.1/3h) -- -- -- --
13:00 6.7 5.3 0.1 NNO 7.4 7.4 18.5 63 700(-0.1/3h) -- -- -- --
12:00 6.4 5.5 -4.4 NO 5.6 13.0 31.5 46 700(0.0/3h) >70 0/8 -- --
11:00 5.9 4.9 -8.4 NO 5.6 7.4 20.4 35 700(0.1/3h) -- -- -- --
10:00 5.6 4 -12.3 NNO 7.4 11.1 18.5 26 700(0.1/3h) -- -- -- --
09:00 5.5 3.9 -13.1 N 7.4 13.0 31.5 25 700 >70 0/8 -- --
08:00 5.3 5.3 -14.3 NNO 1.9 11.1 25.9 23 700(-0.2/3h) -- -- -- --
07:00 5.3 2.4 -15.6 NO 13.0 13.0 31.5 20 700(-0.3/3h) -- -- -- --
06:00 5.3 1.9 -16.3 ONO 16.7 22.2 33.3 19 700 >70 0/8 -- --
05:00 5.3 1.4 -19.1 ONO 20.4 20.4 31.5 15 700(-0.5/3h) -- -- -- --
04:00 4.9 1.7 -16.9 NO 14.8 14.8 27.8 19 700(-0.6/3h) -- -- -- --
03:00 4.1 0.7 -9.5 NNO 14.8 18.5 33.3 36 700(-0.8/3h) -- -- -- --
02:00 4.5 1.8 -14.0 NNO 11.1 13.0 22.2 25 700(-0.7/3h) -- -- -- --
01:00 5.4 2.6 -18.5 NO 13.0 18.5 33.3 16 700(-0.7/3h) -- -- -- --
00:00 5.6 2.2 -17.2 NO 16.7 22.2 35.2 17 700(-0.4/3h) -- -- -- --

1 Coordinated Universal Time. Actuellement il est 03:00 locale et 01:00 UTC.

2 Le vent souffle depuis la direction indiquée vers la direction oposée.

3 Les rafales max. sont disponible 40 min après l'heure du relevé.

4 Pour les stations d'altitude (plus de 600m) le géopotentiel du niveau le plus proche de la pression obligatoire est indiqué.

5 Les stations disposant d'un diffuseur peuvent indiquer "trace". Cela signifie que des précipitations ont touchés le sol mais que la quantité est inférieure à 0.1 mm.

Copyright

Les données affichées sur cette page sont la propriété exclusive de Météo Suisse.

Récapitulatif de la journée
Température [°C] Vent [km/h] Ensoleillement4 [h] Precipitations totale5 [mm] Pression [Hpa]
Min1 Max.2 Moy.3 Max. Min Max.
4.0 7.5 15.6 44.4 10 h 6 min 0 700.0 700.0

1 Température minimale relevée entre 18:00 UTC la veille et 18:00 UTC le jour donné.

2 Température maximale relevée entre 06:00 UTC le jour donné et 06:00 UTC le lendemain.

3 Vent moyen de la journée basé sur les relevés horaires.

4 Ensoleillement en heures relevé entre 06:00 UTC la veille et 06:00 UTC le jour donné.

5 Précipitations totales tombées entre 06:00 UTC la jour donné et 06:00 UTC le lendemain.

Graphiques horaires